createdAt,value
2018-09-03T00:00:28.644Z,15.60
2018-09-03T00:02:56.994Z,15.60
2018-09-03T00:05:25.668Z,15.70
2018-09-03T00:07:53.956Z,15.70
2018-09-03T00:10:22.321Z,15.60
2018-09-03T00:12:50.609Z,15.60
2018-09-03T00:15:18.909Z,15.60
2018-09-03T00:17:47.230Z,15.60
2018-09-03T00:20:15.539Z,15.70
2018-09-03T00:22:43.804Z,15.70
2018-09-03T00:25:12.065Z,15.70
2018-09-03T00:27:40.337Z,15.70
2018-09-03T00:30:08.599Z,15.70
2018-09-03T00:32:42.201Z,15.70
2018-09-03T00:35:15.829Z,15.70
2018-09-03T00:37:49.709Z,15.70
2018-09-03T00:40:23.317Z,15.70
2018-09-03T00:42:56.892Z,15.60
2018-09-03T00:45:30.676Z,15.60
2018-09-03T00:47:58.981Z,15.60
2018-09-03T00:50:27.354Z,15.70
2018-09-03T00:52:55.619Z,15.70
2018-09-03T00:55:23.859Z,15.70
2018-09-03T00:57:52.207Z,15.80
2018-09-03T01:00:20.461Z,15.80
2018-09-03T01:02:49.370Z,15.80
2018-09-03T01:05:17.636Z,15.80
2018-09-03T01:07:45.959Z,15.80
2018-09-03T01:10:14.284Z,15.70
2018-09-03T01:12:42.513Z,15.70
2018-09-03T01:15:10.856Z,15.80
2018-09-03T01:17:39.291Z,15.70
2018-09-03T01:20:07.580Z,15.60
2018-09-03T01:22:35.910Z,15.60
2018-09-03T01:25:04.259Z,15.60
2018-09-03T01:27:32.586Z,15.50
2018-09-03T01:30:00.937Z,15.60
2018-09-03T01:32:29.239Z,15.60
2018-09-03T01:34:57.569Z,15.50
2018-09-03T01:37:25.856Z,15.60
2018-09-03T01:39:54.383Z,15.70
2018-09-03T01:42:22.716Z,15.70
2018-09-03T01:44:51.011Z,15.60
2018-09-03T01:47:19.279Z,15.60
2018-09-03T01:49:47.587Z,15.60
2018-09-03T01:52:15.856Z,15.60
2018-09-03T01:54:44.162Z,15.50
2018-09-03T01:57:12.430Z,15.50
2018-09-03T01:59:40.727Z,15.60
2018-09-03T02:02:09.082Z,15.60
2018-09-03T02:04:37.388Z,15.60
2018-09-03T02:07:05.774Z,15.60
2018-09-03T02:09:34.104Z,15.60
2018-09-03T02:12:02.410Z,15.60
2018-09-03T02:14:30.682Z,15.60
2018-09-03T02:16:59.013Z,15.60
2018-09-03T02:19:27.352Z,15.50
2018-09-03T02:21:55.602Z,15.50
2018-09-03T02:24:23.905Z,15.50
2018-09-03T02:26:52.274Z,15.60
2018-09-03T02:29:20.602Z,15.60
2018-09-03T02:31:48.880Z,15.60
2018-09-03T02:34:17.205Z,15.60
2018-09-03T02:36:45.457Z,15.50
2018-09-03T02:39:13.729Z,15.50
2018-09-03T02:41:42.081Z,15.50
2018-09-03T02:44:10.430Z,15.50
2018-09-03T02:46:38.673Z,15.50
2018-09-03T02:49:07.161Z,15.60
2018-09-03T02:51:35.410Z,15.50
2018-09-03T02:54:03.687Z,15.50
2018-09-03T02:56:31.954Z,15.50
2018-09-03T02:59:00.351Z,15.40
2018-09-03T03:01:28.644Z,15.40
2018-09-03T03:03:56.943Z,15.40
2018-09-03T03:06:25.259Z,15.40
2018-09-03T03:08:53.665Z,15.40
2018-09-03T03:11:21.987Z,15.40
2018-09-03T03:13:50.240Z,15.40
2018-09-03T03:16:18.611Z,15.40
2018-09-03T03:18:46.957Z,15.40
2018-09-03T03:21:15.219Z,15.40
2018-09-03T03:23:43.585Z,15.40
2018-09-03T03:26:11.859Z,15.40
2018-09-03T03:28:40.224Z,15.30
2018-09-03T03:31:08.468Z,15.30
2018-09-03T03:33:36.831Z,15.40
2018-09-03T03:36:06.060Z,15.30
2018-09-03T03:38:34.393Z,15.30
2018-09-03T03:41:02.664Z,15.30
2018-09-03T03:43:30.927Z,15.40
2018-09-03T03:45:59.149Z,15.30
2018-09-03T03:48:27.484Z,15.30
2018-09-03T03:50:55.747Z,15.30
2018-09-03T03:53:24.074Z,15.30
2018-09-03T03:55:52.382Z,15.30
2018-09-03T03:58:20.711Z,15.40
2018-09-03T04:00:49.403Z,15.40
2018-09-03T04:03:17.713Z,15.40
2018-09-03T04:05:45.957Z,15.30
2018-09-03T04:08:14.264Z,15.30
2018-09-03T04:10:42.564Z,15.30
2018-09-03T04:13:10.884Z,15.30
2018-09-03T04:15:39.133Z,15.40
2018-09-03T04:18:07.505Z,15.30
2018-09-03T04:20:35.814Z,15.30
2018-09-03T04:23:04.191Z,15.20
2018-09-03T04:25:32.517Z,15.20
2018-09-03T04:28:00.872Z,15.20
2018-09-03T04:30:29.134Z,15.30
2018-09-03T04:32:57.423Z,15.20
2018-09-03T04:35:25.747Z,15.20
2018-09-03T04:37:54.041Z,15.30
2018-09-03T04:40:22.381Z,15.30
2018-09-03T04:42:50.696Z,15.30
2018-09-03T04:45:18.963Z,15.20
2018-09-03T04:47:47.256Z,15.30
2018-09-03T04:50:15.609Z,15.40
2018-09-03T04:52:43.926Z,15.40
2018-09-03T04:55:12.248Z,15.40
2018-09-03T04:57:40.486Z,15.30
2018-09-03T05:00:08.856Z,15.30
2018-09-03T05:02:37.169Z,15.30
2018-09-03T05:05:05.558Z,15.30
2018-09-03T05:07:33.877Z,15.30
2018-09-03T05:10:02.148Z,15.30
2018-09-03T05:12:30.423Z,15.40
2018-09-03T05:14:58.727Z,15.40
2018-09-03T05:17:27.037Z,15.40
2018-09-03T05:19:55.400Z,15.50
2018-09-03T05:22:23.693Z,15.40
2018-09-03T05:24:51.979Z,15.50
2018-09-03T05:27:20.318Z,15.40
2018-09-03T05:29:48.703Z,15.50
2018-09-03T05:32:16.963Z,15.50
2018-09-03T05:34:45.460Z,15.50
2018-09-03T05:37:13.820Z,15.60
2018-09-03T05:39:42.075Z,15.60
2018-09-03T05:42:10.322Z,15.50
2018-09-03T05:44:38.590Z,15.40
2018-09-03T05:47:06.861Z,15.40
2018-09-03T05:49:35.449Z,15.40
2018-09-03T05:52:03.775Z,15.40
2018-09-03T05:54:32.093Z,15.40
2018-09-03T05:57:00.543Z,15.40
2018-09-03T05:59:28.968Z,15.50
2018-09-03T06:01:57.821Z,15.40
2018-09-03T06:04:26.165Z,15.50
2018-09-03T06:06:54.769Z,15.50
2018-09-03T06:09:23.053Z,15.60
2018-09-03T06:11:51.380Z,15.60
2018-09-03T06:14:19.710Z,15.60
2018-09-03T06:16:47.951Z,15.60
2018-09-03T06:19:16.233Z,15.60
2018-09-03T06:21:44.574Z,15.70
2018-09-03T06:24:12.909Z,15.80
2018-09-03T06:26:41.326Z,15.90
2018-09-03T06:29:09.604Z,16.00
2018-09-03T06:31:37.857Z,16.10
2018-09-03T06:34:06.196Z,16.20
2018-09-03T06:36:34.480Z,16.20
2018-09-03T06:39:02.880Z,16.20
2018-09-03T06:41:31.186Z,16.20
2018-09-03T06:43:59.533Z,16.20
2018-09-03T06:46:27.860Z,16.20
2018-09-03T06:48:56.191Z,16.20
2018-09-03T06:51:24.444Z,16.20
2018-09-03T06:53:52.746Z,16.20
2018-09-03T06:56:21.102Z,16.20
2018-09-03T06:58:49.395Z,16.30
2018-09-03T07:01:17.767Z,16.30
2018-09-03T07:03:46.060Z,16.40
2018-09-03T07:06:14.326Z,16.30
2018-09-03T07:08:42.642Z,16.50
2018-09-03T07:11:11.898Z,16.50
2018-09-03T07:13:40.140Z,16.60
2018-09-03T07:16:08.490Z,16.70
2018-09-03T07:18:36.947Z,16.80
2018-09-03T07:21:05.246Z,16.90
2018-09-03T07:23:33.732Z,17.00
2018-09-03T07:26:02.039Z,17.00
2018-09-03T07:28:30.423Z,17.00
2018-09-03T07:30:59.195Z,16.90
2018-09-03T07:33:27.608Z,16.90
2018-09-03T07:35:55.961Z,16.90
2018-09-03T07:38:24.734Z,17.00
2018-09-03T07:40:53.103Z,17.00
2018-09-03T07:43:21.410Z,17.00
2018-09-03T07:45:49.657Z,17.10
2018-09-03T07:48:17.977Z,17.10
2018-09-03T07:50:46.260Z,17.10
2018-09-03T07:53:14.589Z,17.20
2018-09-03T07:55:42.987Z,17.50
2018-09-03T07:58:11.283Z,17.60
2018-09-03T08:00:39.597Z,17.60
2018-09-03T08:03:07.835Z,17.70
2018-09-03T08:05:36.105Z,17.70
2018-09-03T08:08:04.318Z,17.80
2018-09-03T08:10:32.577Z,17.90
2018-09-03T08:13:00.933Z,18.00
2018-09-03T08:15:29.170Z,17.90
2018-09-03T08:17:57.469Z,17.90
2018-09-03T08:20:25.790Z,17.90
2018-09-03T08:22:54.053Z,17.90
2018-09-03T08:25:22.384Z,18.00
2018-09-03T08:27:50.640Z,18.00
2018-09-03T08:30:18.983Z,17.90
2018-09-03T08:32:47.332Z,17.90
2018-09-03T08:35:15.597Z,18.00
2018-09-03T08:37:43.980Z,18.00
2018-09-03T08:40:12.198Z,18.00
2018-09-03T08:42:40.561Z,18.00
2018-09-03T08:45:08.881Z,18.10
2018-09-03T08:47:37.159Z,18.10
2018-09-03T08:50:05.527Z,18.10
2018-09-03T08:52:33.801Z,18.10
2018-09-03T08:55:02.068Z,18.30
2018-09-03T08:57:30.430Z,18.30
2018-09-03T08:59:58.801Z,18.30
2018-09-03T09:02:27.122Z,18.50
2018-09-03T09:04:55.404Z,18.30
2018-09-03T09:07:23.702Z,18.30
2018-09-03T09:09:52.067Z,18.30
2018-09-03T09:12:20.417Z,18.50
2018-09-03T09:14:48.753Z,18.50
2018-09-03T09:17:17.039Z,18.40
2018-09-03T09:19:45.331Z,18.50
2018-09-03T09:22:13.638Z,18.40
2018-09-03T09:24:41.915Z,18.30
2018-09-03T09:27:10.246Z,18.30
2018-09-03T09:29:38.582Z,18.20
2018-09-03T09:32:06.917Z,18.20
2018-09-03T09:34:35.269Z,18.20
2018-09-03T09:37:03.512Z,18.30
2018-09-03T09:39:31.870Z,18.30
2018-09-03T09:42:00.178Z,18.20
2018-09-03T09:44:28.578Z,18.30
2018-09-03T09:46:56.937Z,18.30
2018-09-03T09:49:25.311Z,18.20
2018-09-03T09:51:53.543Z,18.20
2018-09-03T09:54:21.770Z,18.20
2018-09-03T09:56:50.119Z,18.30
2018-09-03T09:59:18.480Z,18.50
2018-09-03T10:01:46.743Z,18.60
2018-09-03T10:04:15.147Z,18.50
2018-09-03T10:06:43.379Z,18.60
2018-09-03T10:09:11.725Z,18.70
2018-09-03T10:11:40.009Z,18.70
2018-09-03T10:14:08.291Z,18.90
2018-09-03T10:16:36.601Z,18.90
2018-09-03T10:19:04.824Z,18.90
2018-09-03T10:21:33.125Z,19.00
2018-09-03T10:24:01.395Z,19.00
2018-09-03T10:26:29.776Z,19.10
2018-09-03T10:28:58.186Z,19.10
2018-09-03T10:31:26.536Z,19.30
2018-09-03T10:33:54.895Z,19.30
2018-09-03T10:36:23.247Z,19.50
2018-09-03T10:38:51.458Z,19.60
2018-09-03T10:41:19.827Z,19.70
2018-09-03T10:43:48.179Z,19.80
2018-09-03T10:46:16.638Z,19.80
2018-09-03T10:48:44.936Z,19.70
2018-09-03T10:51:13.266Z,19.70
2018-09-03T10:53:41.551Z,19.70
2018-09-03T10:56:09.878Z,19.70
2018-09-03T10:58:38.151Z,19.60
2018-09-03T11:01:06.502Z,19.50
2018-09-03T11:03:34.801Z,19.60
2018-09-03T11:06:03.039Z,19.70
2018-09-03T11:08:31.411Z,19.80
2018-09-03T11:10:59.731Z,19.80
2018-09-03T11:13:28.084Z,19.70
2018-09-03T11:15:56.400Z,19.80
2018-09-03T11:18:26.162Z,19.80
2018-09-03T11:20:54.463Z,19.70
2018-09-03T11:23:22.822Z,19.60
2018-09-03T11:25:51.089Z,19.60
2018-09-03T11:28:19.377Z,19.70
2018-09-03T11:30:47.741Z,19.80
2018-09-03T11:33:16.016Z,19.80
2018-09-03T11:35:44.355Z,19.70
2018-09-03T11:38:12.658Z,19.70
2018-09-03T11:40:40.978Z,19.60
2018-09-03T11:43:09.216Z,19.50
2018-09-03T11:45:37.575Z,19.50
2018-09-03T11:48:05.840Z,19.50
2018-09-03T11:50:34.103Z,19.60
2018-09-03T11:53:02.414Z,19.50
2018-09-03T11:55:30.798Z,19.60
2018-09-03T11:57:59.201Z,19.70
2018-09-03T12:00:30.758Z,19.80
2018-09-03T12:02:59.312Z,19.80
2018-09-03T12:05:28.325Z,19.90
2018-09-03T12:07:56.636Z,19.90
2018-09-03T12:10:25.069Z,19.90
2018-09-03T12:12:53.379Z,19.90
2018-09-03T12:15:26.927Z,20.00
2018-09-03T12:17:55.239Z,20.00
2018-09-03T12:20:23.598Z,20.00
2018-09-03T12:22:51.921Z,20.00
2018-09-03T12:25:20.252Z,20.10
2018-09-03T12:27:48.565Z,20.30
2018-09-03T12:30:16.804Z,20.30
2018-09-03T12:32:45.070Z,20.30
2018-09-03T12:35:13.395Z,20.40
2018-09-03T12:37:41.641Z,20.40
2018-09-03T12:40:09.937Z,20.40
2018-09-03T12:42:38.222Z,20.40
2018-09-03T12:45:06.578Z,20.50
2018-09-03T12:47:34.845Z,20.60
2018-09-03T12:50:03.224Z,20.70
2018-09-03T12:52:31.474Z,20.80
2018-09-03T12:54:59.866Z,20.80
2018-09-03T12:57:28.155Z,20.90
2018-09-03T13:00:05.147Z,21.00
2018-09-03T13:02:24.710Z,21.10
2018-09-03T13:04:53.153Z,21.30
2018-09-03T13:07:21.473Z,21.40
2018-09-03T13:09:49.736Z,21.50
2018-09-03T13:12:17.999Z,21.70
2018-09-03T13:14:46.302Z,21.80
2018-09-03T13:17:14.566Z,21.90
2018-09-03T13:19:42.870Z,22.10
2018-09-03T13:22:11.228Z,22.30
2018-09-03T13:24:39.509Z,22.50
2018-09-03T13:27:07.760Z,22.70
2018-09-03T13:29:35.984Z,22.60
2018-09-03T13:32:04.320Z,22.80
2018-09-03T13:34:32.629Z,22.80
2018-09-03T13:37:00.990Z,22.90
2018-09-03T13:39:29.360Z,22.90
2018-09-03T13:41:57.638Z,23.00
2018-09-03T13:44:25.973Z,23.00
2018-09-03T13:46:55.868Z,22.90
2018-09-03T13:49:24.262Z,23.00
2018-09-03T13:51:52.592Z,22.90
2018-09-03T13:54:20.812Z,22.60
2018-09-03T13:56:49.204Z,22.50
2018-09-03T13:59:17.493Z,22.50
2018-09-03T14:01:45.734Z,22.70
2018-09-03T14:04:14.027Z,22.50
2018-09-03T14:06:42.290Z,22.30
2018-09-03T14:09:10.554Z,22.30
2018-09-03T14:11:38.972Z,22.40
2018-09-03T14:14:07.238Z,22.60
2018-09-03T14:16:35.541Z,22.70
2018-09-03T14:19:03.968Z,22.80
2018-09-03T14:21:32.270Z,22.90
2018-09-03T14:24:00.614Z,22.90
2018-09-03T14:26:28.958Z,23.00
2018-09-03T14:28:57.243Z,23.10
2018-09-03T14:31:25.550Z,23.10
2018-09-03T14:33:54.257Z,23.10
2018-09-03T14:36:22.597Z,23.00
2018-09-03T14:38:50.905Z,23.10
2018-09-03T14:41:19.244Z,23.20
2018-09-03T14:43:47.553Z,23.10
2018-09-03T14:46:15.892Z,23.10
2018-09-03T14:48:44.254Z,23.00
2018-09-03T14:51:12.526Z,22.90
2018-09-03T14:53:40.998Z,23.00
2018-09-03T14:56:09.330Z,23.00
2018-09-03T14:58:37.724Z,23.00
2018-09-03T15:01:05.934Z,23.00
2018-09-03T15:03:34.415Z,22.90
2018-09-03T15:06:02.670Z,22.90
2018-09-03T15:08:31.025Z,23.00
2018-09-03T15:10:59.357Z,23.10
2018-09-03T15:13:27.667Z,23.10
2018-09-03T15:15:55.961Z,23.10
2018-09-03T15:18:24.284Z,23.10
2018-09-03T15:20:52.560Z,23.20
2018-09-03T15:23:20.919Z,23.10
2018-09-03T15:25:49.220Z,23.10
2018-09-03T15:28:17.489Z,23.20
2018-09-03T15:30:45.791Z,23.20
2018-09-03T15:33:14.032Z,23.20
2018-09-03T15:35:42.389Z,23.20
2018-09-03T15:38:10.866Z,23.10
2018-09-03T15:40:39.186Z,23.00
2018-09-03T15:43:07.467Z,22.90
2018-09-03T15:45:35.791Z,22.80
2018-09-03T15:48:04.076Z,22.70
2018-09-03T15:50:32.458Z,22.50
2018-09-03T15:53:00.738Z,22.40
2018-09-03T15:55:29.017Z,22.40
2018-09-03T15:57:57.609Z,22.30
2018-09-03T16:00:25.934Z,22.30
2018-09-03T16:02:54.314Z,22.30
2018-09-03T16:05:22.628Z,22.30
2018-09-03T16:07:50.912Z,22.20
2018-09-03T16:10:19.265Z,22.20
2018-09-03T16:12:47.572Z,22.20
2018-09-03T16:15:15.925Z,22.20
2018-09-03T16:17:44.226Z,22.20
2018-09-03T16:20:12.706Z,22.20
2018-09-03T16:22:41.018Z,22.20
2018-09-03T16:25:09.306Z,22.20
2018-09-03T16:27:37.645Z,22.10
2018-09-03T16:30:06.043Z,22.00
2018-09-03T16:32:34.458Z,21.90
2018-09-03T16:35:02.746Z,21.90
2018-09-03T16:37:31.083Z,21.80
2018-09-03T16:39:59.424Z,21.80
2018-09-03T16:42:27.798Z,21.70
2018-09-03T16:44:56.088Z,21.60
2018-09-03T16:47:25.179Z,21.50
2018-09-03T16:49:53.466Z,21.40
2018-09-03T16:52:21.760Z,21.40
2018-09-03T16:54:50.043Z,21.30
2018-09-03T16:57:18.335Z,21.10
2018-09-03T16:59:46.647Z,21.00
2018-09-03T17:02:14.979Z,20.80
2018-09-03T17:04:43.314Z,20.70
2018-09-03T17:07:11.770Z,20.60
2018-09-03T17:09:40.062Z,20.40
2018-09-03T17:12:08.366Z,20.30
2018-09-03T17:14:36.616Z,20.10
2018-09-03T17:17:04.968Z,20.00
2018-09-03T17:19:33.263Z,19.90
2018-09-03T17:22:01.540Z,20.00
2018-09-03T17:24:29.810Z,19.80
2018-09-03T17:26:58.028Z,19.70
2018-09-03T17:29:26.469Z,19.50
2018-09-03T17:31:54.698Z,19.40
2018-09-03T17:34:22.980Z,19.20
2018-09-03T17:36:51.392Z,19.10
2018-09-03T17:39:19.781Z,18.90
2018-09-03T17:41:48.050Z,18.80
2018-09-03T17:44:16.401Z,18.70
2018-09-03T17:46:44.692Z,18.70
2018-09-03T17:49:13.076Z,18.50
2018-09-03T17:51:41.425Z,18.40
2018-09-03T17:54:09.787Z,18.40
2018-09-03T17:56:38.058Z,18.20
2018-09-03T17:59:06.422Z,18.20
2018-09-03T18:01:34.799Z,18.10
2018-09-03T18:04:03.246Z,18.00
2018-09-03T18:06:31.628Z,18.00
2018-09-03T18:08:59.947Z,18.00
2018-09-03T18:11:28.224Z,17.80
2018-09-03T18:13:56.564Z,17.70
2018-09-03T18:16:24.950Z,17.60
2018-09-03T18:18:53.391Z,17.60
2018-09-03T18:21:21.652Z,17.50
2018-09-03T18:23:50.019Z,17.40
2018-09-03T18:26:18.378Z,17.30
2018-09-03T18:28:46.625Z,17.20
2018-09-03T18:31:14.940Z,17.20
2018-09-03T18:33:43.255Z,17.20
2018-09-03T18:36:11.597Z,17.10
2018-09-03T18:38:39.927Z,17.10
2018-09-03T18:41:08.225Z,17.10
2018-09-03T18:43:36.521Z,17.00
2018-09-03T18:46:04.762Z,17.00
2018-09-03T18:48:33.039Z,17.00
2018-09-03T18:51:01.330Z,16.90
2018-09-03T18:53:29.726Z,16.90
2018-09-03T18:55:57.984Z,16.90
2018-09-03T18:58:26.403Z,16.80
2018-09-03T19:00:54.691Z,16.80
2018-09-03T19:03:22.961Z,16.80
2018-09-03T19:05:51.312Z,16.90
2018-09-03T19:08:19.569Z,16.80
2018-09-03T19:10:47.882Z,16.70
2018-09-03T19:13:16.225Z,16.60
2018-09-03T19:15:44.517Z,16.60
2018-09-03T19:18:12.776Z,16.60
2018-09-03T19:20:41.071Z,16.60
2018-09-03T19:23:09.452Z,16.60
2018-09-03T19:25:37.736Z,16.60
2018-09-03T19:28:06.190Z,16.60
2018-09-03T19:30:34.457Z,16.60
2018-09-03T19:33:02.866Z,16.60
2018-09-03T19:35:31.182Z,16.60
2018-09-03T19:37:59.462Z,16.50
2018-09-03T19:40:27.874Z,16.60
2018-09-03T19:42:56.086Z,16.50
2018-09-03T19:45:24.436Z,16.60
2018-09-03T19:47:52.705Z,16.50
2018-09-03T19:50:21.000Z,16.50
2018-09-03T19:52:49.257Z,16.60
2018-09-03T19:55:17.556Z,16.50
2018-09-03T19:57:45.901Z,16.50
2018-09-03T20:00:14.213Z,16.60
2018-09-03T20:02:42.484Z,16.60
2018-09-03T20:05:10.747Z,16.70
2018-09-03T20:07:39.002Z,16.60
2018-09-03T20:10:07.699Z,16.60
2018-09-03T20:12:35.966Z,16.60
2018-09-03T20:15:04.440Z,16.60
2018-09-03T20:17:32.685Z,16.60
2018-09-03T20:20:01.103Z,16.60
2018-09-03T20:22:29.374Z,16.60
2018-09-03T20:24:57.609Z,16.60
2018-09-03T20:27:25.983Z,16.50
2018-09-03T20:29:54.274Z,16.50
2018-09-03T20:32:22.588Z,16.50
2018-09-03T20:34:50.890Z,16.50
2018-09-03T20:37:19.184Z,16.50
2018-09-03T20:39:47.467Z,16.50
2018-09-03T20:42:15.781Z,16.50
2018-09-03T20:44:44.120Z,16.50
2018-09-03T20:47:12.374Z,16.40
2018-09-03T20:49:40.661Z,16.40
2018-09-03T20:52:08.977Z,16.40
2018-09-03T20:54:37.309Z,16.30
2018-09-03T20:57:05.630Z,16.20
2018-09-03T20:59:33.937Z,16.20
2018-09-03T21:02:02.240Z,16.10
2018-09-03T21:04:30.467Z,15.90
2018-09-03T21:06:58.869Z,15.90
2018-09-03T21:09:27.096Z,15.80
2018-09-03T21:11:55.378Z,15.80
2018-09-03T21:14:23.789Z,15.70
2018-09-03T21:16:52.010Z,15.70
2018-09-03T21:19:20.310Z,15.70
2018-09-03T21:21:48.651Z,15.70
2018-09-03T21:24:16.947Z,15.60
2018-09-03T21:26:45.193Z,15.60
2018-09-03T21:29:13.521Z,15.50
2018-09-03T21:31:41.814Z,15.50
2018-09-03T21:34:10.186Z,15.50
2018-09-03T21:36:38.464Z,15.40
2018-09-03T21:39:06.873Z,15.40
2018-09-03T21:41:35.065Z,15.40
2018-09-03T21:44:03.363Z,15.30
2018-09-03T21:46:31.739Z,15.30
2018-09-03T21:49:00.122Z,15.20
2018-09-03T21:51:28.378Z,15.20
2018-09-03T21:53:56.664Z,15.10
2018-09-03T21:56:24.913Z,15.20
2018-09-03T21:58:53.224Z,15.20
2018-09-03T22:01:21.491Z,15.10
2018-09-03T22:03:49.797Z,15.10
2018-09-03T22:06:18.099Z,15.00
2018-09-03T22:08:46.471Z,15.00
2018-09-03T22:11:14.789Z,14.90
2018-09-03T22:13:43.071Z,14.90
2018-09-03T22:16:11.383Z,14.80
2018-09-03T22:18:40.548Z,14.90
2018-09-03T22:21:08.969Z,14.70
2018-09-03T22:23:38.131Z,14.70
2018-09-03T22:26:06.601Z,14.80
2018-09-03T22:28:35.206Z,14.80
2018-09-03T22:31:03.633Z,14.70
2018-09-03T22:33:31.911Z,14.80
2018-09-03T22:36:00.250Z,14.70
2018-09-03T22:38:28.551Z,14.70
2018-09-03T22:40:56.829Z,14.70
2018-09-03T22:43:25.078Z,14.70
2018-09-03T22:45:53.425Z,14.80
2018-09-03T22:48:21.682Z,14.80
2018-09-03T22:50:49.955Z,14.70
2018-09-03T22:53:18.237Z,14.70
2018-09-03T22:55:46.564Z,14.80
2018-09-03T22:58:14.831Z,14.80
2018-09-03T23:00:43.160Z,14.80
2018-09-03T23:03:11.451Z,14.80
2018-09-03T23:05:39.688Z,14.70
2018-09-03T23:08:07.996Z,14.70
2018-09-03T23:10:36.345Z,14.70
2018-09-03T23:13:04.595Z,14.70
2018-09-03T23:15:32.912Z,14.70
2018-09-03T23:18:01.306Z,14.70
2018-09-03T23:20:29.587Z,14.70
2018-09-03T23:22:57.960Z,14.70
2018-09-03T23:25:26.245Z,14.70
2018-09-03T23:27:54.592Z,14.60
2018-09-03T23:30:22.990Z,14.50
2018-09-03T23:32:51.241Z,14.60
2018-09-03T23:35:19.527Z,14.50
2018-09-03T23:37:47.760Z,14.50
2018-09-03T23:40:16.004Z,14.40
2018-09-03T23:42:44.319Z,14.40
2018-09-03T23:45:12.629Z,14.40
2018-09-03T23:47:40.958Z,14.30
2018-09-03T23:50:09.173Z,14.30
2018-09-03T23:52:37.462Z,14.30
2018-09-03T23:55:06.301Z,14.30
2018-09-03T23:57:34.608Z,14.20
